Antonios — SY8410 — position and weather

sailwx.info

Track history (hours):
 
Tides and Currents Weather Stations Pressure Air Temp Water Temp Dewpoint Dewpoint Depression Visibility Wind Speed Wind Dir Waves Ship Positions

Antonios

Last reported at 2016-Nov-07 02:11 UTC. Time now 2016-Dec-03 13:44 UTC.
Position N 37°14' E 025°32'.
Warning: this ship's position is 26 days out of date.

Length 57 m; draft 4 m.

Type: Tanker. MMSI: 239191300.

Date/timePositionNaut miles runAvg speedWind from/ knotsBaromVisibWave heightAir tempDewpointWater temp
2016-Nov-07 02:11N 37°14' E 025°32'6 9.8
2016-Nov-07 01:33N 37°16' E 025°25'3010.1
2016-Nov-06 22:33N 37°20' E 024°47'49 9.4
2016-Nov-06 17:21N 37°36' E 023°49'16 9.2
2016-Nov-06 15:33N 37°49' E 023°36'2010.2
2016-Nov-06 13:33N 37°53' E 023°11'5 4.2
2016-Nov-06 12:27N 37°55' E 023°05'0 0.0
2016-Nov-05 23:33N 37°55' E 023°05'1 0.4
2016-Nov-05 21:31N 37°54' E 023°04'0 0.0
2016-Nov-05 20:39N 37°54' E 023°04'0 0.0
2016-Nov-05 20:32N 37°54' E 023°04'32 4.0
2016-Nov-05 12:33N 37°44' E 023°43'5210.0
2016-Nov-05 07:20N 37°25' E 024°44'2810.0
2016-Nov-05 04:33N 37°16' E 025°17'2010.1
2016-Nov-05 02:33N 37°13' E 025°42'  
Track history (hours):
 
Tides and Currents Weather Stations Pressure Air Temp Water Temp Dewpoint Dewpoint Depression Visibility Wind Speed Wind Dir Waves Ship Positions

Antonios

Last reported at 2016-Nov-07 02:11 UTC. Time now 2016-Dec-03 13:44 UTC.
Position N 37°14' E 025°32'.
Warning: this ship's position is 26 days out of date.

Length 57 m; draft 4 m.

Type: Tanker. MMSI: 239191300.

Date/timePositionNaut miles runAvg speedWind from/ knotsBaromVisibWave heightAir tempDewpointWater temp
2016-Nov-07 02:11N 37°14' E 025°32'6 9.8
2016-Nov-07 01:33N 37°16' E 025°25'3010.1
2016-Nov-06 22:33N 37°20' E 024°47'49 9.4
2016-Nov-06 17:21N 37°36' E 023°49'16 9.2
2016-Nov-06 15:33N 37°49' E 023°36'2010.2
2016-Nov-06 13:33N 37°53' E 023°11'5 4.2
2016-Nov-06 12:27N 37°55' E 023°05'0 0.0
2016-Nov-05 23:33N 37°55' E 023°05'1 0.4
2016-Nov-05 21:31N 37°54' E 023°04'0 0.0
2016-Nov-05 20:39N 37°54' E 023°04'0 0.0
2016-Nov-05 20:32N 37°54' E 023°04'32 4.0
2016-Nov-05 12:33N 37°44' E 023°43'5210.0
2016-Nov-05 07:20N 37°25' E 024°44'2810.0
2016-Nov-05 04:33N 37°16' E 025°17'2010.1
2016-Nov-05 02:33N 37°13' E 025°42'  

Dump ship's entire track history